Time;durP1;ratioP1;P1;durP2;ratioP2;P2;SDS_P1;SDS_P2;PMS_P1;PMS_P2;Temp;Humidity;BMP_temperature;BMP_pressure;BME280_temperature;BME280_humidity;BME280_pressure;Samples;Min_cycle;Max_cycle;Signal;HPM_P1;HPM_P2
2023/12/17 00:01:11;;;;;;;14.63;11.18;;;;;;;1.60;65.27;96555.16;4166786;28;20144;-70
2023/12/17 00:03:13;;;;;;;16.73;12.15;;;;;;;1.52;65.54;96541.69;4166561;28;20076;-69
2023/12/17 00:05:21;;;;;;;15.07;11.95;;;;;;;1.56;65.39;96542.44;4174716;28;20092;-69
2023/12/17 00:07:23;;;;;;;14.18;10.77;;;;;;;1.57;65.21;96550.13;4166433;28;20475;-68
2023/12/17 00:09:25;;;;;;;13.70;10.98;;;;;;;1.57;65.56;96544.97;4173251;28;20087;-68
2023/12/17 00:11:27;;;;;;;13.45;10.43;;;;;;;1.71;65.32;96544.41;4174365;28;20056;-69
2023/12/17 00:13:29;;;;;;;12.70;9.70;;;;;;;1.60;65.15;96550.00;4178555;28;20045;-68
2023/12/17 00:15:30;;;;;;;12.52;10.30;;;;;;;1.67;65.20;96542.84;4173509;28;20045;-67
2023/12/17 00:17:32;;;;;;;14.70;10.57;;;;;;;1.75;64.88;96558.91;4172671;28;20053;-67
2023/12/17 00:19:34;;;;;;;13.77;10.88;;;;;;;1.83;65.35;96553.44;4178598;28;20151;-70
2023/12/17 00:21:36;;;;;;;15.85;10.93;;;;;;;2.04;65.00;96562.06;4174811;28;20071;-70
2023/12/17 00:23:38;;;;;;;13.50;10.43;;;;;;;2.10;64.35;96568.75;4161742;28;20556;-68
2023/12/17 00:25:40;;;;;;;13.60;10.43;;;;;;;2.09;64.30;96567.94;4168257;28;20492;-70
2023/12/17 00:27:42;;;;;;;16.73;13.60;;;;;;;2.15;63.98;96577.16;4173351;28;20106;-68
2023/12/17 00:29:43;;;;;;;14.73;11.23;;;;;;;2.22;63.87;96563.94;4171675;28;20076;-68
2023/12/17 00:31:46;;;;;;;18.70;14.32;;;;;;;2.13;64.11;96573.78;4166559;28;20128;-68
2023/12/17 00:33:47;;;;;;;17.13;12.77;;;;;;;2.15;64.30;96574.56;4177167;28;20091;-67
2023/12/17 00:35:50;;;;;;;18.17;13.38;;;;;;;2.20;64.31;96578.66;4171911;28;20057;-69
2023/12/17 00:37:52;;;;;;;20.02;15.05;;;;;;;2.27;64.38;96579.25;4173660;28;20064;-67
2023/12/17 00:39:54;;;;;;;21.73;14.10;;;;;;;2.33;63.90;96576.44;4171306;28;20053;-67
2023/12/17 00:41:56;;;;;;;18.63;14.35;;;;;;;2.38;63.54;96582.25;4178725;28;20173;-69
2023/12/17 00:43:57;;;;;;;19.02;14.65;;;;;;;2.38;63.39;96584.81;4176737;28;20143;-67
2023/12/17 00:45:59;;;;;;;18.67;14.88;;;;;;;2.39;63.70;96593.47;4174409;28;20049;-68
2023/12/17 00:48:01;;;;;;;19.67;15.57;;;;;;;2.36;63.98;96589.22;4175106;28;20376;-68
2023/12/17 00:50:03;;;;;;;19.52;14.68;;;;;;;2.38;64.02;96584.81;4177601;28;20124;-66
2023/12/17 00:52:05;;;;;;;20.75;14.93;;;;;;;2.36;64.76;96588.38;4177300;28;20051;-67
2023/12/17 00:54:07;;;;;;;24.20;15.80;;;;;;;2.41;65.16;96583.84;4169275;28;20077;-69
2023/12/17 00:56:10;;;;;;;19.65;14.55;;;;;;;2.34;64.81;96580.69;4167621;28;20049;-68
2023/12/17 00:58:12;;;;;;;19.70;14.70;;;;;;;2.35;64.77;96581.53;4178191;28;20147;-69
2023/12/17 01:00:14;;;;;;;21.42;15.50;;;;;;;2.28;64.95;96573.19;4175470;28;20059;-68
2023/12/17 01:02:16;;;;;;;21.02;14.93;;;;;;;2.28;65.15;96573.19;4172816;28;20144;-68
2023/12/17 01:04:18;;;;;;;18.10;14.10;;;;;;;2.30;64.73;96573.94;4162685;28;20056;-69
2023/12/17 01:06:20;;;;;;;17.85;14.05;;;;;;;2.36;65.08;96575.47;4169038;28;20064;-70
2023/12/17 01:08:22;;;;;;;18.90;14.95;;;;;;;2.42;64.57;96575.22;4177102;28;20098;-69
2023/12/17 01:10:24;;;;;;;19.27;14.43;;;;;;;2.45;64.68;96569.91;4164817;28;20200;-67
2023/12/17 01:12:25;;;;;;;17.10;13.25;;;;;;;2.40;63.87;96571.84;4178212;28;20056;-68
2023/12/17 01:14:28;;;;;;;19.88;15.48;;;;;;;2.36;64.38;96578.03;4168255;28;20114;-68
2023/12/17 01:16:30;;;;;;;19.27;14.57;;;;;;;2.39;64.71;96572.75;4163215;28;20115;-67
2023/12/17 01:18:32;;;;;;;19.30;14.23;;;;;;;2.40;64.22;96571.84;4165873;28;20053;-68
2023/12/17 01:20:37;;;;;;;19.58;14.60;;;;;;;2.38;64.60;96571.91;4169097;28;20418;-66
2023/12/17 01:22:39;;;;;;;17.40;13.98;;;;;;;2.42;64.52;96570.88;4172184;28;20063;-68
2023/12/17 01:24:41;;;;;;;18.92;14.65;;;;;;;2.44;64.30;96576.81;4164717;28;20059;-68
2023/12/17 01:26:43;;;;;;;19.48;14.60;;;;;;;2.40;64.13;96582.19;4177437;28;20414;-68
2023/12/17 01:28:45;;;;;;;18.30;14.05;;;;;;;2.42;63.91;96594.16;4177957;28;20056;-67
2023/12/17 01:30:47;;;;;;;17.98;14.35;;;;;;;2.42;63.91;96590.72;4164826;28;20103;-68
2023/12/17 01:32:49;;;;;;;19.85;13.77;;;;;;;2.35;64.09;96594.47;4174509;28;20045;-69
2023/12/17 01:34:51;;;;;;;17.90;13.70;;;;;;;2.15;64.56;96603.00;4170065;28;20066;-71
2023/12/17 01:36:53;;;;;;;19.50;14.13;;;;;;;1.93;65.46;96603.84;4178529;28;20507;-68
2023/12/17 01:38:55;;;;;;;18.25;13.52;;;;;;;1.91;65.70;96584.97;4173924;28;20625;-69
2023/12/17 01:40:57;;;;;;;18.05;13.75;;;;;;;1.94;65.56;96587.47;4164741;28;20080;-67
2023/12/17 01:42:59;;;;;;;17.63;14.02;;;;;;;2.01;65.76;96601.00;4185111;28;20044;-68
2023/12/17 01:45:01;;;;;;;19.65;14.05;;;;;;;2.04;65.61;96601.72;4189747;28;20127;-69
2023/12/17 01:47:03;;;;;;;17.42;13.05;;;;;;;2.07;65.74;96607.69;4182938;28;20048;-67
2023/12/17 01:49:06;;;;;;;15.95;12.57;;;;;;;2.11;65.21;96609.22;4172967;28;20057;-68
2023/12/17 01:51:09;;;;;;;16.42;12.23;;;;;;;2.11;64.90;96606.63;4172116;28;20519;-68
2023/12/17 01:53:12;;;;;;;16.17;12.77;;;;;;;2.10;65.10;96604.94;4173218;28;20056;-68
2023/12/17 01:55:14;;;;;;;15.43;12.02;;;;;;;2.10;65.05;96605.78;4169847;28;20058;-68
2023/12/17 01:57:16;;;;;;;18.38;12.52;;;;;;;2.10;65.23;96605.78;4164510;28;20049;-68
2023/12/17 01:59:18;;;;;;;16.83;12.68;;;;;;;2.13;65.04;96599.66;4175233;28;20141;-68
2023/12/17 02:01:22;;;;;;;16.75;11.90;;;;;;;2.15;65.41;96606.47;4172471;28;20057;-67
2023/12/17 02:03:24;;;;;;;15.85;11.93;;;;;;;2.11;65.26;96607.50;4184309;28;20098;-67
2023/12/17 02:05:26;;;;;;;15.73;12.20;;;;;;;2.09;65.01;96598.94;4172755;28;20045;-69
2023/12/17 02:07:28;;;;;;;16.20;11.95;;;;;;;2.10;64.89;96598.03;4170635;28;20048;-67
2023/12/17 02:09:30;;;;;;;15.90;11.48;;;;;;;2.11;64.70;96597.16;4166435;28;20057;-67
2023/12/17 02:11:32;;;;;;;14.23;11.50;;;;;;;2.09;64.97;96590.31;4176463;28;20060;-69
2023/12/17 02:13:34;;;;;;;15.70;11.30;;;;;;;2.10;64.63;96592.03;4169490;28;20080;-67
2023/12/17 02:15:39;;;;;;;15.52;10.95;;;;;;;2.05;65.01;96587.88;4175137;28;20060;-68
2023/12/17 02:17:40;;;;;;;14.30;11.65;;;;;;;2.07;64.44;96581.81;4178338;28;20526;-67
2023/12/17 02:19:43;;;;;;;13.88;11.13;;;;;;;2.01;64.40;96595.81;4174981;28;20053;-67
2023/12/17 02:21:45;;;;;;;14.45;10.48;;;;;;;1.95;64.57;96581.38;4176151;28;20453;-68
2023/12/17 02:23:47;;;;;;;13.80;11.05;;;;;;;2.02;64.34;96588.00;4171373;28;20065;-68
2023/12/17 02:25:49;;;;;;;14.23;10.98;;;;;;;2.00;64.89;96588.94;4177233;28;20045;-67
2023/12/17 02:27:50;;;;;;;13.43;10.50;;;;;;;1.96;64.38;96590.00;4176617;28;20061;-67
2023/12/17 02:29:54;;;;;;;12.77;9.80;;;;;;;1.97;64.17;96594.25;4164212;28;20111;-67
2023/12/17 02:31:56;;;;;;;11.27;9.13;;;;;;;1.88;64.12;96577.38;4174306;28;20124;-67
2023/12/17 02:33:58;;;;;;;13.10;9.73;;;;;;;1.84;63.88;96586.97;4179678;28;20049;-68
2023/12/17 02:36:00;;;;;;;13.35;9.35;;;;;;;1.80;64.49;96587.97;4178753;28;20041;-68
2023/12/17 02:38:02;;;;;;;12.13;9.15;;;;;;;1.92;64.45;96591.84;4177553;28;20059;-69
2023/12/17 02:40:05;;;;;;;11.63;8.40;;;;;;;1.90;64.42;96595.41;4177533;28;20052;-70
2023/12/17 02:42:07;;;;;;;11.80;8.53;;;;;;;1.77;63.63;96593.28;4168353;28;20061;-68
2023/12/17 02:44:09;;;;;;;11.38;8.68;;;;;;;1.74;64.45;96592.56;4180064;28;20282;-67
2023/12/17 02:46:11;;;;;;;11.55;8.65;;;;;;;1.73;64.20;96586.53;4169529;28;20135;-68
2023/12/17 02:48:13;;;;;;;11.52;8.70;;;;;;;1.73;64.28;96596.88;4176448;28;20067;-68
2023/12/17 02:50:15;;;;;;;12.07;8.23;;;;;;;1.75;64.04;96607.16;4171181;28;20056;-67
2023/12/17 02:52:18;;;;;;;11.18;8.50;;;;;;;1.60;63.64;96601.66;4179604;28;20412;-67
2023/12/17 02:54:21;;;;;;;13.60;9.02;;;;;;;1.62;64.11;96605.03;4176930;28;20053;-67
2023/12/17 02:56:23;;;;;;;10.63;7.97;;;;;;;1.67;63.84;96606.63;4179490;28;20102;-68
2023/12/17 02:58:25;;;;;;;10.82;8.18;;;;;;;1.66;63.79;96597.16;4179083;28;20061;-67
2023/12/17 03:00:27;;;;;;;10.32;7.43;;;;;;;1.59;63.67;96599.13;4170434;28;20493;-69
2023/12/17 03:02:29;;;;;;;11.18;7.82;;;;;;;1.55;63.94;96601.00;4164607;28;20095;-68
2023/12/17 03:04:31;;;;;;;10.10;8.02;;;;;;;1.55;64.02;96597.56;4175799;28;20053;-68
2023/12/17 03:06:32;;;;;;;10.63;7.95;;;;;;;1.52;63.85;96593.38;4169078;28;20354;-67
2023/12/17 03:08:37;;;;;;;10.43;7.85;;;;;;;1.53;63.66;96589.91;4176867;28;20384;-68
2023/12/17 03:10:42;;;;;;;10.35;7.78;;;;;;;1.49;64.26;96601.25;4174267;28;20049;-67
2023/12/17 03:12:44;;;;;;;10.93;7.80;;;;;;;1.42;64.32;96602.38;4176125;28;20049;-67
2023/12/17 03:14:46;;;;;;;9.23;6.97;;;;;;;1.36;64.32;96602.59;4177774;28;20076;-68
2023/12/17 03:16:48;;;;;;;10.13;7.25;;;;;;;1.39;64.51;96603.31;4174735;28;20476;-67
2023/12/17 03:18:51;;;;;;;9.95;7.38;;;;;;;1.40;64.23;96599.84;4174378;28;20052;-69
2023/12/17 03:20:53;;;;;;;9.82;7.25;;;;;;;1.39;64.15;96587.81;4174266;28;20044;-69
2023/12/17 03:22:55;;;;;;;9.10;6.70;;;;;;;1.47;64.27;96599.63;4175112;28;20066;-67
2023/12/17 03:24:57;;;;;;;9.50;6.97;;;;;;;1.46;64.20;96592.75;4172323;28;20127;-68
2023/12/17 03:26:59;;;;;;;9.38;7.20;;;;;;;1.37;64.00;96587.03;4178093;28;20032;-67
2023/12/17 03:29:01;;;;;;;10.48;7.20;;;;;;;1.35;64.59;96590.56;4166286;28;20073;-68
2023/12/17 03:31:03;;;;;;;10.25;7.45;;;;;;;1.39;64.74;96597.31;4164664;28;20057;-68
2023/12/17 03:33:05;;;;;;;11.40;7.95;;;;;;;1.37;64.47;96596.50;4164229;28;20052;-69
2023/12/17 03:35:07;;;;;;;9.07;6.97;;;;;;;1.43;64.49;96601.47;4169251;28;20054;-67
2023/12/17 03:37:09;;;;;;;8.15;6.55;;;;;;;1.35;64.09;96606.06;4177848;28;20132;-68
2023/12/17 03:39:13;;;;;;;9.38;7.20;;;;;;;1.34;64.35;96605.22;4177949;28;20554;-68
2023/12/17 03:41:25;;;;;;;9.27;6.82;;;;;;;1.30;64.47;96613.16;4178748;28;20055;-68
2023/12/17 03:43:27;;;;;;;9.05;6.60;;;;;;;1.35;64.81;96614.66;4176931;28;20053;-67
2023/12/17 03:45:31;;;;;;;9.02;6.78;;;;;;;1.34;64.71;96609.56;4179200;28;20041;-69
2023/12/17 03:47:33;;;;;;;8.85;6.43;;;;;;;1.36;64.67;96618.09;4179712;28;20505;-68
2023/12/17 03:49:34;;;;;;;9.85;6.82;;;;;;;1.36;64.50;96607.75;4177501;28;20060;-68
2023/12/17 03:51:36;;;;;;;9.65;7.13;;;;;;;1.38;64.58;96616.28;4178289;28;20458;-68
2023/12/17 03:53:38;;;;;;;9.80;7.07;;;;;;;1.42;64.27;96617.88;4172308;28;20054;-69
2023/12/17 03:55:40;;;;;;;10.50;6.50;;;;;;;1.42;64.22;96623.88;4162026;28;20129;-68
2023/12/17 03:57:42;;;;;;;10.23;7.32;;;;;;;1.42;64.43;96618.72;4163456;28;20128;-67
2023/12/17 03:59:44;;;;;;;9.18;7.13;;;;;;;1.41;64.41;96627.34;4174533;28;20064;-68
2023/12/17 04:01:46;;;;;;;9.23;7.35;;;;;;;1.34;64.75;96625.88;4163950;28;20063;-69
2023/12/17 04:03:48;;;;;;;10.13;7.28;;;;;;;1.34;64.63;96637.97;4162703;28;20132;-67
2023/12/17 04:05:51;;;;;;;10.30;7.40;;;;;;;1.31;65.01;96625.13;4162897;28;20053;-65
2023/12/17 04:07:53;;;;;;;9.13;7.55;;;;;;;1.31;65.26;96622.56;4174085;28;20042;-68
2023/12/17 04:09:56;;;;;;;9.73;7.43;;;;;;;1.37;64.61;96627.50;4175442;28;20344;-64
2023/12/17 04:11:58;;;;;;;9.35;7.25;;;;;;;1.30;64.40;96620.88;4174225;28;20085;-68
2023/12/17 04:14:01;;;;;;;9.27;7.00;;;;;;;1.32;64.74;96632.84;4178304;28;20049;-68
2023/12/17 04:16:03;;;;;;;8.57;6.63;;;;;;;1.39;65.15;96626.53;4176620;28;20922;-68
2023/12/17 04:18:04;;;;;;;10.13;7.03;;;;;;;1.36;64.77;96628.41;4177228;28;20376;-67
2023/12/17 04:20:07;;;;;;;9.18;6.95;;;;;;;1.39;64.78;96630.88;4169550;28;20186;-67
2023/12/17 04:22:09;;;;;;;9.52;7.35;;;;;;;1.38;64.85;96631.78;4162994;28;20076;-68
2023/12/17 04:24:11;;;;;;;8.77;6.72;;;;;;;1.38;64.85;96631.78;4164756;28;20413;-66
2023/12/17 04:26:13;;;;;;;8.90;6.97;;;;;;;1.36;65.25;96634.41;4174910;28;20103;-67
2023/12/17 04:28:15;;;;;;;9.80;7.40;;;;;;;1.35;64.88;96630.13;4178264;28;20053;-66
2023/12/17 04:30:17;;;;;;;9.55;7.18;;;;;;;1.32;65.37;96640.59;4178646;28;20079;-67
2023/12/17 04:32:19;;;;;;;9.57;7.78;;;;;;;1.29;65.06;96632.97;4177176;28;20110;-67
2023/12/17 04:34:21;;;;;;;10.50;7.57;;;;;;;1.33;64.93;96633.69;4171832;28;20435;-66
2023/12/17 04:36:24;;;;;;;9.65;7.80;;;;;;;1.29;65.30;96643.28;4176602;28;20049;-67
2023/12/17 04:38:26;;;;;;;9.00;7.27;;;;;;;1.31;65.76;96631.16;4176634;28;20056;-68
2023/12/17 04:40:28;;;;;;;9.35;7.60;;;;;;;1.23;65.09;96639.19;4176466;28;20365;-70
2023/12/17 04:42:30;;;;;;;10.25;7.00;;;;;;;1.23;65.17;96641.75;4166356;28;20061;-69
2023/12/17 04:44:35;;;;;;;10.07;7.82;;;;;;;1.29;65.77;96639.84;4171618;28;20481;-67
2023/12/17 04:46:38;;;;;;;8.98;7.10;;;;;;;1.26;65.34;96642.56;4173479;28;20069;-71
2023/12/17 04:48:39;;;;;;;8.48;7.03;;;;;;;1.30;65.46;96644.97;4165192;28;20410;-69
2023/12/17 04:50:43;;;;;;;9.35;7.80;;;;;;;1.37;65.38;96640.41;4168807;28;20049;-69
2023/12/17 04:52:45;;;;;;;10.20;7.45;;;;;;;1.27;65.11;96641.63;4177833;28;20070;-67
2023/12/17 04:54:46;;;;;;;9.27;7.68;;;;;;;1.21;65.45;96640.97;4164395;28;20048;-69
2023/12/17 04:56:48;;;;;;;10.70;7.35;;;;;;;1.24;65.43;96655.50;4177629;28;20048;-68
2023/12/17 04:58:50;;;;;;;10.27;7.85;;;;;;;1.20;65.55;96653.94;4171993;28;20440;-68
2023/12/17 05:00:52;;;;;;;9.13;7.28;;;;;;;1.20;65.52;96654.75;4167143;28;20057;-70
2023/12/17 05:02:54;;;;;;;10.52;8.38;;;;;;;1.23;65.77;96648.66;4177579;28;20072;-69
2023/12/17 05:04:56;;;;;;;10.18;7.25;;;;;;;1.23;65.53;96646.09;4176823;28;20052;-68
2023/12/17 05:06:58;;;;;;;10.77;7.85;;;;;;;1.21;65.57;96661.63;4192034;28;20067;-69
2023/12/17 05:09:00;;;;;;;10.40;7.75;;;;;;;1.18;65.58;96656.59;4167966;28;20540;-69
2023/12/17 05:11:02;;;;;;;11.15;7.90;;;;;;;1.20;65.50;96657.34;4185746;28;20059;-69
2023/12/17 05:13:04;;;;;;;11.40;8.00;;;;;;;1.13;65.85;96658.47;4162596;28;20041;-67
2023/12/17 05:15:06;;;;;;;10.60;8.00;;;;;;;1.09;65.59;96661.22;4173391;28;20075;-69
2023/12/17 05:17:08;;;;;;;10.65;8.07;;;;;;;1.06;65.94;96666.50;4167116;28;20548;-69
2023/12/17 05:19:10;;;;;;;10.55;8.60;;;;;;;0.96;66.14;96671.94;4161620;28;20433;-68
2023/12/17 05:21:12;;;;;;;11.20;7.82;;;;;;;0.94;66.50;96672.91;4166740;28;20052;-69
2023/12/17 05:23:14;;;;;;;11.70;8.13;;;;;;;0.96;66.47;96669.38;4175078;28;20457;-68
2023/12/17 05:25:16;;;;;;;11.35;8.35;;;;;;;0.97;66.50;96683.13;4171556;28;20084;-71
2023/12/17 05:27:18;;;;;;;12.25;9.15;;;;;;;0.98;66.21;96689.97;4175763;28;20481;-69
2023/12/17 05:29:20;;;;;;;10.65;8.10;;;;;;;0.98;66.44;96689.97;4176816;28;20151;-68
2023/12/17 05:31:22;;;;;;;9.80;8.07;;;;;;;1.00;65.83;96693.34;4173375;28;20094;-69
2023/12/17 05:33:24;;;;;;;11.88;9.02;;;;;;;0.99;66.44;96695.09;4176805;28;20049;-70
2023/12/17 05:35:26;;;;;;;11.55;8.43;;;;;;;0.99;65.77;96700.25;4176810;28;20486;-69
2023/12/17 05:37:28;;;;;;;11.45;7.90;;;;;;;1.02;66.00;96697.56;4169906;28;20045;-69
2023/12/17 05:39:30;;;;;;;11.18;7.82;;;;;;;0.98;66.31;96701.13;4176104;28;20088;-69
2023/12/17 05:41:32;;;;;;;11.13;8.43;;;;;;;0.94;66.75;96703.88;4177392;28;20215;-69
2023/12/17 05:43:35;;;;;;;9.95;8.10;;;;;;;0.93;66.30;96705.59;4164166;28;20106;-69
2023/12/17 05:45:37;;;;;;;9.82;7.55;;;;;;;0.95;66.11;96701.25;4178052;28;20049;-70
2023/12/17 05:47:51;;;;;;;10.13;8.05;;;;;;;0.94;66.41;96701.28;4168858;28;20049;-69
2023/12/17 05:49:53;;;;;;;10.25;7.85;;;;;;;0.85;65.91;96699.03;4169741;28;20057;-69
2023/12/17 05:51:55;;;;;;;9.65;8.23;;;;;;;0.92;65.80;96703.06;4171527;28;20049;-69
2023/12/17 05:53:57;;;;;;;11.68;7.95;;;;;;;0.93;65.86;96700.44;4177451;28;20053;-70
2023/12/17 05:56:00;;;;;;;10.50;7.60;;;;;;;0.85;65.93;96692.13;4169025;28;20053;-69
2023/12/17 05:58:01;;;;;;;10.40;8.05;;;;;;;0.77;66.35;96694.09;4171682;28;20120;-69
2023/12/17 06:00:04;;;;;;;11.30;8.02;;;;;;;0.77;66.29;96701.84;4168373;28;20059;-72
2023/12/17 06:02:06;;;;;;;10.45;8.30;;;;;;;0.84;66.16;96697.31;4168606;28;20054;-71
2023/12/17 06:04:09;;;;;;;10.43;7.78;;;;;;;0.84;66.14;96698.19;4169463;28;20056;-70
2023/12/17 06:06:11;;;;;;;12.88;7.35;;;;;;;0.79;66.00;96693.16;4190811;28;20053;-72
2023/12/17 06:08:13;;;;;;;10.13;7.30;;;;;;;0.81;66.11;96693.94;4169679;28;20057;-67
2023/12/17 06:10:15;;;;;;;10.25;7.22;;;;;;;0.92;66.16;96701.31;4170927;28;20405;-67
2023/12/17 06:12:17;;;;;;;10.82;8.07;;;;;;;0.95;65.48;96708.16;4177567;28;20107;-70
2023/12/17 06:14:19;;;;;;;10.23;7.57;;;;;;;0.99;65.48;96701.97;4178972;28;20052;-67
2023/12/17 06:16:21;;;;;;;9.10;7.30;;;;;;;1.08;65.17;96703.41;4167640;28;20060;-69
2023/12/17 06:18:23;;;;;;;10.73;7.43;;;;;;;1.08;64.58;96701.69;4180702;28;20373;-69
2023/12/17 06:20:25;;;;;;;11.07;7.43;;;;;;;1.09;65.06;96703.34;4180873;28;20052;-68
2023/12/17 06:22:32;;;;;;;9.93;7.50;;;;;;;1.18;64.84;96694.44;4179658;28;20049;-68
2023/12/17 06:24:34;;;;;;;11.15;7.63;;;;;;;1.26;64.58;96700.19;4179112;28;20132;-70
2023/12/17 06:26:36;;;;;;;8.77;7.13;;;;;;;1.29;64.32;96691.50;4180487;28;20049;-69
2023/12/17 06:28:38;;;;;;;10.15;7.40;;;;;;;1.45;64.08;96695.22;4196010;28;20079;-70
2023/12/17 06:30:39;;;;;;;9.43;7.53;;;;;;;2.00;63.49;96697.53;4179746;28;20053;-69
2023/12/17 06:32:42;;;;;;;8.88;7.30;;;;;;;2.82;61.12;96697.78;4177607;28;20057;-70
2023/12/17 06:34:44;;;;;;;8.45;6.53;;;;;;;3.56;58.48;96700.69;4170367;28;20484;-68
2023/12/17 06:36:45;;;;;;;10.27;7.75;;;;;;;3.93;57.23;96698.22;4176158;28;20052;-69
2023/12/17 06:38:47;;;;;;;9.40;6.78;;;;;;;4.04;56.59;96708.94;4167150;28;20450;-69
2023/12/17 06:40:49;;;;;;;8.73;6.90;;;;;;;3.81;56.25;96700.47;4167450;28;20045;-70
2023/12/17 06:42:51;;;;;;;8.90;7.10;;;;;;;3.57;57.35;96709.28;4180655;28;20045;-69
2023/12/17 06:44:53;;;;;;;9.50;7.55;;;;;;;3.22;57.84;96707.31;4179332;28;20087;-70
2023/12/17 06:46:55;;;;;;;11.05;7.78;;;;;;;2.96;58.30;96712.75;4167255;28;20057;-70
2023/12/17 06:48:57;;;;;;;10.40;8.18;;;;;;;2.77;58.99;96723.84;4168634;28;20044;-69
2023/12/17 06:51:03;;;;;;;10.82;7.80;;;;;;;2.45;60.12;96723.38;4180034;28;20116;-69
2023/12/17 06:53:05;;;;;;;11.13;9.05;;;;;;;2.26;60.52;96725.00;4162331;28;20092;-70
2023/12/17 06:55:08;;;;;;;11.55;8.85;;;;;;;2.19;61.63;96728.69;4190236;28;20054;-71
2023/12/17 06:57:09;;;;;;;12.43;9.57;;;;;;;2.10;61.91;96729.06;4175851;28;20042;-71
2023/12/17 06:59:11;;;;;;;12.95;10.05;;;;;;;1.99;61.95;96730.28;4177593;28;20487;-69
2023/12/17 07:01:13;;;;;;;12.40;9.50;;;;;;;1.99;62.30;96739.78;4180203;28;20091;-70
2023/12/17 07:03:18;;;;;;;12.18;9.13;;;;;;;2.03;62.20;96729.28;4168262;28;20140;-69
2023/12/17 07:05:20;;;;;;;13.52;10.25;;;;;;;2.08;62.11;96749.78;4180373;28;20049;-70
2023/12/17 07:07:22;;;;;;;14.20;10.05;;;;;;;2.13;62.38;96740.13;4168278;28;20080;-69
2023/12/17 07:09:24;;;;;;;11.93;9.35;;;;;;;2.16;62.32;96746.94;4167369;28;20511;-74
2023/12/17 07:11:26;;;;;;;14.60;10.30;;;;;;;2.14;62.44;96749.56;4169716;28;20049;-69
2023/12/17 07:13:28;;;;;;;14.57;10.40;;;;;;;2.11;62.58;96743.66;4177419;28;20088;-68
2023/12/17 07:15:30;;;;;;;14.20;10.30;;;;;;;2.10;62.15;96747.16;4179771;28;20133;-69
2023/12/17 07:17:32;;;;;;;14.15;11.13;;;;;;;2.15;62.45;96753.84;4170426;28;20053;-71
2023/12/17 07:19:34;;;;;;;14.18;11.32;;;;;;;2.11;62.28;96747.09;4171108;28;20053;-66
2023/12/17 07:21:36;;;;;;;13.60;10.75;;;;;;;2.14;62.51;96741.81;4177979;28;20076;-69
2023/12/17 07:23:38;;;;;;;13.32;11.40;;;;;;;2.39;62.33;96746.91;4177477;28;20566;-71
2023/12/17 07:25:40;;;;;;;15.15;11.32;;;;;;;2.50;61.97;96750.81;4172858;28;20108;-72
2023/12/17 07:27:42;;;;;;;14.38;10.07;;;;;;;2.47;61.64;96741.41;4173193;28;20531;-70
2023/12/17 07:29:44;;;;;;;14.25;9.77;;;;;;;2.59;62.06;96742.69;4174598;28;20049;-70
2023/12/17 07:31:46;;;;;;;11.85;9.20;;;;;;;2.69;61.41;96738.84;4174360;28;20071;-71
2023/12/17 07:33:48;;;;;;;13.23;10.10;;;;;;;2.78;61.18;96729.88;4174735;28;20045;-70
2023/12/17 07:35:50;;;;;;;10.98;9.27;;;;;;;2.89;61.64;96727.69;4173847;28;20146;-70
2023/12/17 07:37:52;;;;;;;13.07;10.23;;;;;;;3.03;60.68;96722.81;4189870;28;20045;-69
2023/12/17 07:39:54;;;;;;;11.07;8.85;;;;;;;3.04;60.74;96719.28;4176630;28;20136;-68
2023/12/17 07:41:56;;;;;;;13.95;9.57;;;;;;;3.03;60.52;96724.53;4176583;28;20045;-69
2023/12/17 07:43:58;;;;;;;13.52;10.60;;;;;;;3.06;60.31;96727.00;4166697;28;20099;-70
2023/12/17 07:46:00;;;;;;;12.05;9.85;;;;;;;3.09;60.55;96732.03;4179736;28;20127;-70
2023/12/17 07:48:02;;;;;;;11.75;9.15;;;;;;;3.06;60.46;96730.44;4178847;28;20049;-71
2023/12/17 07:50:05;;;;;;;11.27;8.15;;;;;;;2.61;61.20;96751.25;4177092;28;20117;-70
2023/12/17 07:52:07;;;;;;;11.18;8.32;;;;;;;2.70;62.03;96750.88;4179502;28;20472;-70
2023/12/17 07:54:08;;;;;;;12.80;8.95;;;;;;;2.81;61.30;96753.88;4170704;28;20055;-70
2023/12/17 07:56:11;;;;;;;11.43;9.10;;;;;;;2.84;61.64;96758.94;4177945;28;20056;-70
2023/12/17 07:58:14;;;;;;;11.00;8.25;;;;;;;2.79;61.46;96754.84;4179324;28;20049;-69
2023/12/17 08:00:16;;;;;;;9.97;7.97;;;;;;;2.94;61.49;96753.38;4173980;28;20473;-70
2023/12/17 08:02:18;;;;;;;10.95;8.50;;;;;;;2.42;62.17;96766.63;4175627;28;20060;-69
2023/12/17 08:04:20;;;;;;;12.93;9.18;;;;;;;1.69;64.55;96762.41;4178148;28;20122;-71
2023/12/17 08:06:22;;;;;;;11.02;8.40;;;;;;;1.80;64.86;96773.22;4176314;28;20045;-71
2023/12/17 08:08:24;;;;;;;8.85;6.55;;;;;;;1.80;64.14;96766.28;4173426;28;20131;-68
2023/12/17 08:10:26;;;;;;;10.35;8.50;;;;;;;1.25;66.03;96773.41;4177636;28;20078;-71
2023/12/17 08:12:28;;;;;;;11.73;9.65;;;;;;;0.85;67.11;96784.16;4178101;28;20063;-71
2023/12/17 08:14:30;;;;;;;10.77;8.23;;;;;;;0.37;68.77;96791.63;4179470;28;20140;-70
2023/12/17 08:16:32;;;;;;;13.38;8.32;;;;;;;0.70;68.92;96794.06;4179688;28;20096;-71
2023/12/17 08:18:33;;;;;;;9.95;7.57;;;;;;;0.92;68.33;96788.22;4161994;28;20460;-70
2023/12/17 08:20:35;;;;;;;11.05;8.52;;;;;;;1.13;67.21;96790.13;4176196;28;20049;-70
2023/12/17 08:22:37;;;;;;;10.05;7.45;;;;;;;1.36;66.63;96783.38;4177230;28;20049;-71
2023/12/17 08:24:39;;;;;;;9.55;7.72;;;;;;;1.43;66.02;96782.25;4171884;28;20049;-69
2023/12/17 08:26:41;;;;;;;10.95;7.97;;;;;;;1.52;65.56;96794.84;4178288;28;20098;-69
2023/12/17 08:28:43;;;;;;;14.27;9.95;;;;;;;1.56;65.48;96791.25;4178294;28;20405;-70
2023/12/17 08:30:45;;;;;;;11.63;8.32;;;;;;;1.62;65.64;96793.63;4177326;28;20052;-69
2023/12/17 08:32:47;;;;;;;11.40;8.38;;;;;;;1.71;65.05;96794.22;4175561;28;20045;-70
2023/12/17 08:34:49;;;;;;;12.05;9.85;;;;;;;1.76;65.49;96795.72;4170510;28;20045;-69
2023/12/17 08:36:51;;;;;;;11.27;9.32;;;;;;;1.70;65.55;96771.84;4169084;28;20315;-68
2023/12/17 08:38:54;;;;;;;12.60;10.48;;;;;;;1.78;65.33;96778.44;4177974;28;20045;-69
2023/12/17 08:40:56;;;;;;;14.60;10.27;;;;;;;1.94;65.37;96780.50;4177111;28;20056;-70
2023/12/17 08:42:59;;;;;;;12.43;10.23;;;;;;;1.96;65.21;96776.09;4179102;28;20087;-69
2023/12/17 08:45:01;;;;;;;13.27;10.63;;;;;;;1.87;65.58;96769.50;4179086;28;20049;-70
2023/12/17 08:47:03;;;;;;;15.30;11.25;;;;;;;1.82;65.63;96755.91;4177681;28;20053;-70
2023/12/17 08:49:06;;;;;;;15.70;12.25;;;;;;;1.32;66.89;96759.38;4173466;28;20054;-71
2023/12/17 08:51:08;;;;;;;15.23;12.07;;;;;;;1.35;67.73;96751.50;4176012;28;20075;-69
2023/12/17 08:53:10;;;;;;;19.88;13.60;;;;;;;1.41;67.42;96740.13;4164931;28;20049;-69
2023/12/17 08:55:12;;;;;;;21.92;16.52;;;;;;;0.94;67.96;96755.47;4176469;28;20107;-68
2023/12/17 08:57:14;;;;;;;18.83;14.57;;;;;;;0.62;69.60;96754.75;4177098;28;20066;-69
2023/12/17 08:59:16;;;;;;;14.90;11.38;;;;;;;0.73;69.05;96752.72;4178190;28;20049;-69
2023/12/17 09:01:18;;;;;;;15.10;11.75;;;;;;;0.99;69.09;96738.09;4178837;28;20087;-69
2023/12/17 09:03:20;;;;;;;14.05;10.98;;;;;;;1.32;68.80;96741.28;4170486;28;20057;-70
2023/12/17 09:05:22;;;;;;;15.90;12.60;;;;;;;1.50;68.39;96744.97;4163559;28;20049;-69
2023/12/17 09:07:24;;;;;;;16.13;12.20;;;;;;;1.58;67.55;96748.13;4173210;28;20130;-71
2023/12/17 09:09:26;;;;;;;16.15;13.23;;;;;;;1.73;66.64;96745.91;4179540;28;20439;-69
2023/12/17 09:11:29;;;;;;;19.52;13.82;;;;;;;1.79;67.00;96756.88;4174734;28;20048;-70
2023/12/17 09:13:31;;;;;;;18.70;14.00;;;;;;;1.74;66.75;96751.03;4174950;28;20154;-71
2023/12/17 09:15:32;;;;;;;19.45;13.73;;;;;;;1.55;67.38;96747.38;4164410;28;20056;-70
2023/12/17 09:17:34;;;;;;;17.90;13.20;;;;;;;1.55;67.53;96758.59;4179133;28;20048;-69
2023/12/17 09:19:36;;;;;;;14.18;11.90;;;;;;;1.56;67.39;96752.50;4178909;28;20458;-71
2023/12/17 09:21:38;;;;;;;20.98;15.00;;;;;;;1.71;67.19;96748.53;4173388;28;20147;-70
2023/12/17 09:23:40;;;;;;;16.00;12.55;;;;;;;1.61;66.14;96747.19;4177308;28;20122;-70
2023/12/17 09:25:42;;;;;;;17.75;12.10;;;;;;;1.76;66.67;96748.38;4175627;28;20262;-69
2023/12/17 09:27:44;;;;;;;16.85;12.75;;;;;;;1.83;66.20;96753.28;4176218;28;20056;-70
2023/12/17 09:29:46;;;;;;;14.48;11.63;;;;;;;1.81;65.84;96749.06;4177668;28;20044;-68
2023/12/17 09:31:47;;;;;;;15.35;11.77;;;;;;;1.81;65.85;96751.66;4178082;28;20403;-69
2023/12/17 09:33:49;;;;;;;16.88;11.68;;;;;;;1.89;65.91;96752.19;4171862;28;20073;-69